sensor_id;sensor_type;location;lat;lon;timestamp;pressure;altitude;pressure_sealevel;temperature;humidity
24230;BME280;12362;50.004;8.006;2023-05-23T00:02:03;100365.06;;;19.73;100.00
24230;BME280;12362;50.004;8.006;2023-05-23T00:04:32;100363.53;;;19.70;100.00
24230;BME280;12362;50.004;8.006;2023-05-23T00:06:58;100355.75;;;19.69;100.00
24230;BME280;12362;50.004;8.006;2023-05-23T00:09:23;100359.38;;;19.68;100.00
24230;BME280;12362;50.004;8.006;2023-05-23T00:11:49;100361.75;;;19.71;100.00
24230;BME280;12362;50.004;8.006;2023-05-23T00:14:14;100365.06;;;19.73;100.00
24230;BME280;12362;50.004;8.006;2023-05-23T00:16:40;100364.38;;;19.71;100.00
24230;BME280;12362;50.004;8.006;2023-05-23T00:19:07;100372.88;;;19.54;100.00
24230;BME280;12362;50.004;8.006;2023-05-23T00:21:34;100366.28;;;19.39;100.00
24230;BME280;12362;50.004;8.006;2023-05-23T00:23:59;100367.38;;;19.57;100.00
24230;BME280;12362;50.004;8.006;2023-05-23T00:26:27;100368.75;;;19.61;100.00
24230;BME280;12362;50.004;8.006;2023-05-23T00:28:54;100376.88;;;19.48;100.00
24230;BME280;12362;50.004;8.006;2023-05-23T00:31:21;100370.09;;;19.46;100.00
24230;BME280;12362;50.004;8.006;2023-05-23T00:33:46;100386.00;;;19.44;100.00
24230;BME280;12362;50.004;8.006;2023-05-23T00:36:12;100381.78;;;19.32;100.00
24230;BME280;12362;50.004;8.006;2023-05-23T00:38:37;100380.31;;;19.39;100.00
24230;BME280;12362;50.004;8.006;2023-05-23T00:41:04;100389.09;;;19.29;100.00
24230;BME280;12362;50.004;8.006;2023-05-23T00:43:30;100392.63;;;19.39;100.00
24230;BME280;12362;50.004;8.006;2023-05-23T00:46:20;100392.59;;;19.29;100.00
24230;BME280;12362;50.004;8.006;2023-05-23T00:48:46;100393.81;;;19.25;100.00
24230;BME280;12362;50.004;8.006;2023-05-23T00:51:12;100397.66;;;19.21;100.00
24230;BME280;12362;50.004;8.006;2023-05-23T00:53:38;100405.38;;;19.34;100.00
24230;BME280;12362;50.004;8.006;2023-05-23T00:56:04;100409.53;;;19.36;100.00
24230;BME280;12362;50.004;8.006;2023-05-23T00:58:30;100410.81;;;19.42;100.00
24230;BME280;12362;50.004;8.006;2023-05-23T01:00:56;100414.56;;;19.49;100.00
24230;BME280;12362;50.004;8.006;2023-05-23T01:03:24;100419.25;;;19.66;100.00
24230;BME280;12362;50.004;8.006;2023-05-23T01:05:53;100413.13;;;19.56;100.00
24230;BME280;12362;50.004;8.006;2023-05-23T01:08:20;100413.13;;;19.56;100.00
24230;BME280;12362;50.004;8.006;2023-05-23T01:10:46;100421.53;;;19.50;100.00
24230;BME280;12362;50.004;8.006;2023-05-23T01:13:33;100412.97;;;19.57;100.00
24230;BME280;12362;50.004;8.006;2023-05-23T01:16:07;100406.81;;;19.47;100.00
24230;BME280;12362;50.004;8.006;2023-05-23T01:18:54;100411.34;;;19.36;100.00
24230;BME280;12362;50.004;8.006;2023-05-23T01:21:23;100412.97;;;19.37;100.00
24230;BME280;12362;50.004;8.006;2023-05-23T01:27:00;100417.03;;;19.20;100.00
24230;BME280;12362;50.004;8.006;2023-05-23T01:29:31;100417.63;;;19.24;100.00
24230;BME280;12362;50.004;8.006;2023-05-23T01:31:59;100416.66;;;19.25;100.00
24230;BME280;12362;50.004;8.006;2023-05-23T01:34:27;100415.53;;;19.07;100.00
24230;BME280;12362;50.004;8.006;2023-05-23T01:36:54;100439.03;;;18.99;100.00
24230;BME280;12362;50.004;8.006;2023-05-23T01:39:21;100428.56;;;18.88;100.00
24230;BME280;12362;50.004;8.006;2023-05-23T01:41:48;100438.75;;;18.82;100.00
24230;BME280;12362;50.004;8.006;2023-05-23T01:44:14;100431.53;;;18.84;100.00
24230;BME280;12362;50.004;8.006;2023-05-23T01:46:41;100440.09;;;18.76;100.00
24230;BME280;12362;50.004;8.006;2023-05-23T01:49:11;100446.94;;;18.57;100.00
24230;BME280;12362;50.004;8.006;2023-05-23T01:51:38;100445.66;;;18.51;100.00
24230;BME280;12362;50.004;8.006;2023-05-23T01:54:04;100445.50;;;18.53;100.00
24230;BME280;12362;50.004;8.006;2023-05-23T01:56:30;100446.38;;;18.42;100.00
24230;BME280;12362;50.004;8.006;2023-05-23T01:58:56;100444.38;;;18.35;100.00
24230;BME280;12362;50.004;8.006;2023-05-23T02:01:22;100442.69;;;18.34;100.00
24230;BME280;12362;50.004;8.006;2023-05-23T02:03:48;100442.06;;;18.20;100.00
24230;BME280;12362;50.004;8.006;2023-05-23T02:06:14;100444.81;;;18.18;100.00
24230;BME280;12362;50.004;8.006;2023-05-23T02:08:39;100441.38;;;18.18;100.00
24230;BME280;12362;50.004;8.006;2023-05-23T02:11:05;100442.09;;;17.98;100.00
24230;BME280;12362;50.004;8.006;2023-05-23T02:13:33;100445.56;;;18.09;100.00
24230;BME280;12362;50.004;8.006;2023-05-23T02:19:39;100447.34;;;17.87;100.00
24230;BME280;12362;50.004;8.006;2023-05-23T02:22:05;100446.63;;;17.85;100.00
24230;BME280;12362;50.004;8.006;2023-05-23T02:24:30;100442.94;;;17.87;100.00
24230;BME280;12362;50.004;8.006;2023-05-23T02:26:56;100448.19;;;17.76;100.00
24230;BME280;12362;50.004;8.006;2023-05-23T02:29:21;100452.22;;;17.80;100.00
24230;BME280;12362;50.004;8.006;2023-05-23T02:31:47;100449.38;;;17.72;100.00
24230;BME280;12362;50.004;8.006;2023-05-23T02:34:12;100444.56;;;17.66;100.00
24230;BME280;12362;50.004;8.006;2023-05-23T02:36:38;100450.28;;;17.49;100.00
24230;BME280;12362;50.004;8.006;2023-05-23T02:39:04;100466.13;;;17.37;100.00
24230;BME280;12362;50.004;8.006;2023-05-23T02:41:30;100461.16;;;17.45;100.00
24230;BME280;12362;50.004;8.006;2023-05-23T02:43:56;100464.00;;;17.42;100.00
24230;BME280;12362;50.004;8.006;2023-05-23T02:46:22;100463.06;;;17.43;100.00
24230;BME280;12362;50.004;8.006;2023-05-23T02:48:47;100468.69;;;17.49;100.00
24230;BME280;12362;50.004;8.006;2023-05-23T02:51:13;100468.59;;;17.28;100.00
24230;BME280;12362;50.004;8.006;2023-05-23T02:53:38;100475.97;;;17.23;100.00
24230;BME280;12362;50.004;8.006;2023-05-23T02:56:04;100475.44;;;17.18;100.00
24230;BME280;12362;50.004;8.006;2023-05-23T02:58:32;100465.59;;;17.21;100.00
24230;BME280;12362;50.004;8.006;2023-05-23T03:01:01;100461.38;;;17.19;100.00
24230;BME280;12362;50.004;8.006;2023-05-23T03:03:27;100479.41;;;17.23;100.00
24230;BME280;12362;50.004;8.006;2023-05-23T03:05:53;100472.47;;;17.11;100.00
24230;BME280;12362;50.004;8.006;2023-05-23T03:08:19;100470.94;;;17.20;100.00
24230;BME280;12362;50.004;8.006;2023-05-23T03:10:44;100472.50;;;17.22;100.00
24230;BME280;12362;50.004;8.006;2023-05-23T03:13:10;100473.69;;;17.18;100.00
24230;BME280;12362;50.004;8.006;2023-05-23T03:15:35;100467.78;;;17.04;100.00
24230;BME280;12362;50.004;8.006;2023-05-23T03:18:01;100465.84;;;17.06;100.00
24230;BME280;12362;50.004;8.006;2023-05-23T03:20:26;100471.22;;;17.04;100.00
24230;BME280;12362;50.004;8.006;2023-05-23T03:22:53;100480.19;;;17.02;100.00
24230;BME280;12362;50.004;8.006;2023-05-23T03:25:18;100477.16;;;16.95;100.00
24230;BME280;12362;50.004;8.006;2023-05-23T03:27:44;100459.19;;;17.02;100.00
24230;BME280;12362;50.004;8.006;2023-05-23T03:30:10;100481.84;;;17.03;100.00
24230;BME280;12362;50.004;8.006;2023-05-23T03:32:36;100477.22;;;17.06;100.00
24230;BME280;12362;50.004;8.006;2023-05-23T03:35:01;100481.72;;;17.04;100.00
24230;BME280;12362;50.004;8.006;2023-05-23T03:37:27;100469.34;;;17.06;100.00
24230;BME280;12362;50.004;8.006;2023-05-23T03:39:52;100479.06;;;16.93;100.00
24230;BME280;12362;50.004;8.006;2023-05-23T03:42:18;100475.78;;;16.79;100.00
24230;BME280;12362;50.004;8.006;2023-05-23T03:44:44;100485.38;;;16.91;100.00
24230;BME280;12362;50.004;8.006;2023-05-23T03:47:09;100483.09;;;16.86;100.00
24230;BME280;12362;50.004;8.006;2023-05-23T03:49:38;100488.03;;;16.78;100.00
24230;BME280;12362;50.004;8.006;2023-05-23T03:52:04;100498.09;;;16.84;100.00
24230;BME280;12362;50.004;8.006;2023-05-23T03:54:30;100486.94;;;16.93;100.00
24230;BME280;12362;50.004;8.006;2023-05-23T03:56:56;100488.16;;;16.77;100.00
24230;BME280;12362;50.004;8.006;2023-05-23T03:59:22;100497.09;;;16.74;100.00
24230;BME280;12362;50.004;8.006;2023-05-23T04:01:48;100497.59;;;16.79;100.00
24230;BME280;12362;50.004;8.006;2023-05-23T04:04:13;100509.88;;;16.79;100.00
24230;BME280;12362;50.004;8.006;2023-05-23T04:06:39;100494.47;;;16.74;100.00
24230;BME280;12362;50.004;8.006;2023-05-23T04:09:04;100500.16;;;16.68;100.00
24230;BME280;12362;50.004;8.006;2023-05-23T04:11:33;100505.91;;;16.73;100.00
24230;BME280;12362;50.004;8.006;2023-05-23T04:13:59;100511.88;;;16.75;100.00
24230;BME280;12362;50.004;8.006;2023-05-23T04:16:41;100512.91;;;16.73;100.00
24230;BME280;12362;50.004;8.006;2023-05-23T04:19:07;100522.66;;;16.83;100.00
24230;BME280;12362;50.004;8.006;2023-05-23T04:21:33;100513.03;;;16.95;100.00
24230;BME280;12362;50.004;8.006;2023-05-23T04:24:05;100508.59;;;16.84;100.00
24230;BME280;12362;50.004;8.006;2023-05-23T04:26:30;100512.34;;;16.93;100.00
24230;BME280;12362;50.004;8.006;2023-05-23T04:28:57;100519.94;;;17.08;100.00
24230;BME280;12362;50.004;8.006;2023-05-23T04:31:23;100520.81;;;16.96;100.00
24230;BME280;12362;50.004;8.006;2023-05-23T04:33:49;100525.03;;;17.10;100.00
24230;BME280;12362;50.004;8.006;2023-05-23T04:36:16;100525.44;;;17.16;100.00
24230;BME280;12362;50.004;8.006;2023-05-23T04:38:46;100528.53;;;17.10;100.00
24230;BME280;12362;50.004;8.006;2023-05-23T04:41:12;100530.81;;;17.15;100.00
24230;BME280;12362;50.004;8.006;2023-05-23T04:44:15;100534.03;;;17.18;100.00
24230;BME280;12362;50.004;8.006;2023-05-23T04:46:47;100538.22;;;17.21;100.00
24230;BME280;12362;50.004;8.006;2023-05-23T04:49:19;100523.53;;;17.18;100.00
24230;BME280;12362;50.004;8.006;2023-05-23T04:51:45;100525.50;;;17.04;100.00
24230;BME280;12362;50.004;8.006;2023-05-23T04:54:17;100519.47;;;17.14;100.00
24230;BME280;12362;50.004;8.006;2023-05-23T04:56:43;100536.44;;;17.21;100.00
24230;BME280;12362;50.004;8.006;2023-05-23T04:59:09;100534.53;;;17.23;100.00
24230;BME280;12362;50.004;8.006;2023-05-23T05:01:35;100534.53;;;17.23;100.00
24230;BME280;12362;50.004;8.006;2023-05-23T05:04:05;100531.53;;;17.17;100.00
24230;BME280;12362;50.004;8.006;2023-05-23T05:06:31;100518.03;;;17.33;100.00
24230;BME280;12362;50.004;8.006;2023-05-23T05:08:56;100526.25;;;17.29;100.00
24230;BME280;12362;50.004;8.006;2023-05-23T05:11:22;100525.59;;;17.26;100.00
24230;BME280;12362;50.004;8.006;2023-05-23T05:13:47;100547.97;;;17.31;100.00
24230;BME280;12362;50.004;8.006;2023-05-23T05:16:13;100536.78;;;17.40;100.00
24230;BME280;12362;50.004;8.006;2023-05-23T05:18:39;100554.44;;;17.38;100.00
24230;BME280;12362;50.004;8.006;2023-05-23T05:21:04;100535.63;;;17.44;100.00
24230;BME280;12362;50.004;8.006;2023-05-23T05:23:30;100554.81;;;17.44;100.00
24230;BME280;12362;50.004;8.006;2023-05-23T05:25:57;100560.66;;;17.48;100.00
24230;BME280;12362;50.004;8.006;2023-05-23T05:28:23;100539.28;;;17.41;100.00
24230;BME280;12362;50.004;8.006;2023-05-23T05:30:50;100554.09;;;17.19;100.00
24230;BME280;12362;50.004;8.006;2023-05-23T05:33:21;100571.28;;;17.23;100.00
24230;BME280;12362;50.004;8.006;2023-05-23T05:35:56;100574.09;;;17.33;100.00
24230;BME280;12362;50.004;8.006;2023-05-23T05:38:22;100574.88;;;17.45;100.00
24230;BME280;12362;50.004;8.006;2023-05-23T05:40:47;100581.97;;;17.33;100.00
24230;BME280;12362;50.004;8.006;2023-05-23T05:43:13;100578.53;;;17.32;100.00
24230;BME280;12362;50.004;8.006;2023-05-23T05:45:40;100592.13;;;17.37;100.00
24230;BME280;12362;50.004;8.006;2023-05-23T05:48:06;100595.00;;;17.34;100.00
24230;BME280;12362;50.004;8.006;2023-05-23T05:50:32;100594.88;;;17.35;100.00
24230;BME280;12362;50.004;8.006;2023-05-23T05:52:58;100605.78;;;17.42;100.00
24230;BME280;12362;50.004;8.006;2023-05-23T05:55:23;100602.88;;;17.34;100.00
24230;BME280;12362;50.004;8.006;2023-05-23T05:57:52;100600.56;;;17.30;100.00
24230;BME280;12362;50.004;8.006;2023-05-23T06:00:18;100608.13;;;17.34;100.00
24230;BME280;12362;50.004;8.006;2023-05-23T06:02:52;100610.84;;;17.33;100.00
24230;BME280;12362;50.004;8.006;2023-05-23T06:05:50;100613.38;;;17.34;100.00
24230;BME280;12362;50.004;8.006;2023-05-23T06:08:16;100610.09;;;17.43;100.00
24230;BME280;12362;50.004;8.006;2023-05-23T06:10:41;100608.00;;;17.23;100.00
24230;BME280;12362;50.004;8.006;2023-05-23T06:13:07;100626.66;;;17.08;100.00
24230;BME280;12362;50.004;8.006;2023-05-23T06:15:34;100624.75;;;17.22;100.00
24230;BME280;12362;50.004;8.006;2023-05-23T06:17:59;100631.16;;;17.06;100.00
24230;BME280;12362;50.004;8.006;2023-05-23T06:20:25;100630.09;;;17.21;100.00
24230;BME280;12362;50.004;8.006;2023-05-23T06:22:51;100640.34;;;17.36;100.00
24230;BME280;12362;50.004;8.006;2023-05-23T06:25:16;100636.41;;;17.06;100.00
24230;BME280;12362;50.004;8.006;2023-05-23T06:27:44;100645.34;;;17.16;100.00
24230;BME280;12362;50.004;8.006;2023-05-23T06:30:10;100649.63;;;17.29;100.00
24230;BME280;12362;50.004;8.006;2023-05-23T06:32:36;100646.09;;;17.41;100.00
24230;BME280;12362;50.004;8.006;2023-05-23T06:35:02;100640.00;;;17.64;100.00
24230;BME280;12362;50.004;8.006;2023-05-23T06:37:28;100648.56;;;17.55;100.00
24230;BME280;12362;50.004;8.006;2023-05-23T06:39:55;100645.22;;;17.53;100.00
24230;BME280;12362;50.004;8.006;2023-05-23T06:42:21;100654.09;;;17.63;100.00
24230;BME280;12362;50.004;8.006;2023-05-23T06:45:05;100659.34;;;17.39;100.00
24230;BME280;12362;50.004;8.006;2023-05-23T06:47:31;100659.44;;;17.38;100.00
24230;BME280;12362;50.004;8.006;2023-05-23T06:49:56;100664.59;;;17.27;100.00
24230;BME280;12362;50.004;8.006;2023-05-23T06:52:22;100671.75;;;17.25;100.00
24230;BME280;12362;50.004;8.006;2023-05-23T06:54:47;100670.06;;;17.36;100.00
24230;BME280;12362;50.004;8.006;2023-05-23T06:57:13;100669.63;;;17.42;100.00
24230;BME280;12362;50.004;8.006;2023-05-23T06:59:38;100670.50;;;17.18;100.00
24230;BME280;12362;50.004;8.006;2023-05-23T07:02:04;100667.34;;;17.26;100.00
24230;BME280;12362;50.004;8.006;2023-05-23T07:04:29;100669.63;;;17.42;100.00
24230;BME280;12362;50.004;8.006;2023-05-23T07:07:00;100669.41;;;17.45;100.00
24230;BME280;12362;50.004;8.006;2023-05-23T07:09:26;100671.13;;;17.34;100.00
24230;BME280;12362;50.004;8.006;2023-05-23T07:12:01;100656.47;;;18.24;100.00
24230;BME280;12362;50.004;8.006;2023-05-23T07:14:27;100663.91;;;17.95;100.00
24230;BME280;12362;50.004;8.006;2023-05-23T07:16:53;100667.41;;;17.72;100.00
24230;BME280;12362;50.004;8.006;2023-05-23T07:19:19;100678.91;;;17.82;100.00
24230;BME280;12362;50.004;8.006;2023-05-23T07:21:48;100674.22;;;18.09;100.00
24230;BME280;12362;50.004;8.006;2023-05-23T07:24:16;100684.25;;;18.15;100.00
24230;BME280;12362;50.004;8.006;2023-05-23T07:26:41;100674.84;;;18.58;100.00
24230;BME280;12362;50.004;8.006;2023-05-23T07:29:07;100670.75;;;18.98;100.00
24230;BME280;12362;50.004;8.006;2023-05-23T07:31:32;100680.84;;;18.71;100.00
24230;BME280;12362;50.004;8.006;2023-05-23T07:33:58;100680.13;;;18.80;100.00
24230;BME280;12362;50.004;8.006;2023-05-23T07:36:31;100678.31;;;18.69;100.00
24230;BME280;12362;50.004;8.006;2023-05-23T07:38:58;100679.84;;;18.61;100.00
24230;BME280;12362;50.004;8.006;2023-05-23T07:41:24;100697.28;;;18.51;100.00
24230;BME280;12362;50.004;8.006;2023-05-23T07:43:49;100697.16;;;18.07;100.00
24230;BME280;12362;50.004;8.006;2023-05-23T07:46:15;100699.69;;;18.20;100.00
24230;BME280;12362;50.004;8.006;2023-05-23T07:48:41;100703.97;;;18.10;100.00
24230;BME280;12362;50.004;8.006;2023-05-23T07:51:07;100701.31;;;18.22;100.00
24230;BME280;12362;50.004;8.006;2023-05-23T07:53:32;100696.34;;;18.52;100.00
24230;BME280;12362;50.004;8.006;2023-05-23T07:56:01;100685.06;;;18.28;100.00
24230;BME280;12362;50.004;8.006;2023-05-23T07:58:32;100693.25;;;18.69;100.00
24230;BME280;12362;50.004;8.006;2023-05-23T08:00:57;100696.34;;;18.63;100.00
24230;BME280;12362;50.004;8.006;2023-05-23T08:04:02;100696.50;;;18.72;100.00
24230;BME280;12362;50.004;8.006;2023-05-23T08:06:35;100696.81;;;18.35;100.00
24230;BME280;12362;50.004;8.006;2023-05-23T08:09:05;100706.16;;;18.61;100.00
24230;BME280;12362;50.004;8.006;2023-05-23T08:11:33;100704.91;;;18.32;100.00
24230;BME280;12362;50.004;8.006;2023-05-23T08:13:59;100711.25;;;18.06;100.00
24230;BME280;12362;50.004;8.006;2023-05-23T08:16:37;100707.91;;;18.38;100.00
24230;BME280;12362;50.004;8.006;2023-05-23T08:19:06;100710.94;;;18.45;100.00
24230;BME280;12362;50.004;8.006;2023-05-23T08:21:34;100702.63;;;19.17;100.00
24230;BME280;12362;50.004;8.006;2023-05-23T08:24:00;100712.78;;;18.88;100.00
24230;BME280;12362;50.004;8.006;2023-05-23T08:26:26;100707.88;;;19.06;100.00
24230;BME280;12362;50.004;8.006;2023-05-23T08:29:02;100701.41;;;18.77;100.00
24230;BME280;12362;50.004;8.006;2023-05-23T08:31:29;100712.66;;;18.90;100.00
24230;BME280;12362;50.004;8.006;2023-05-23T08:33:56;100710.00;;;18.90;100.00
24230;BME280;12362;50.004;8.006;2023-05-23T08:36:22;100706.78;;;18.97;100.00
24230;BME280;12362;50.004;8.006;2023-05-23T08:38:48;100700.56;;;19.09;100.00
24230;BME280;12362;50.004;8.006;2023-05-23T08:41:23;100701.28;;;19.00;100.00
24230;BME280;12362;50.004;8.006;2023-05-23T08:43:53;100709.78;;;19.36;100.00
24230;BME280;12362;50.004;8.006;2023-05-23T08:46:25;100701.50;;;19.41;100.00
24230;BME280;12362;50.004;8.006;2023-05-23T08:48:53;100698.09;;;19.72;100.00
24230;BME280;12362;50.004;8.006;2023-05-23T08:51:22;100699.38;;;19.77;100.00
24230;BME280;12362;50.004;8.006;2023-05-23T08:53:50;100690.63;;;19.77;100.00
24230;BME280;12362;50.004;8.006;2023-05-23T08:56:18;100693.00;;;20.42;100.00
24230;BME280;12362;50.004;8.006;2023-05-23T08:58:48;100690.13;;;20.75;100.00
24230;BME280;12362;50.004;8.006;2023-05-23T09:01:18;100686.88;;;20.42;100.00
24230;BME280;12362;50.004;8.006;2023-05-23T09:03:48;100698.97;;;19.50;100.00
24230;BME280;12362;50.004;8.006;2023-05-23T09:06:23;100711.47;;;19.26;100.00
24230;BME280;12362;50.004;8.006;2023-05-23T09:08:49;100715.50;;;18.98;100.00
24230;BME280;12362;50.004;8.006;2023-05-23T09:11:18;100721.50;;;19.00;100.00
24230;BME280;12362;50.004;8.006;2023-05-23T09:13:47;100717.78;;;18.91;100.00
24230;BME280;12362;50.004;8.006;2023-05-23T09:16:18;100724.34;;;19.08;100.00
24230;BME280;12362;50.004;8.006;2023-05-23T09:18:48;100720.78;;;19.19;100.00
24230;BME280;12362;50.004;8.006;2023-05-23T09:21:15;100715.66;;;19.18;100.00
24230;BME280;12362;50.004;8.006;2023-05-23T09:24:04;100716.59;;;18.84;100.00
24230;BME280;12362;50.004;8.006;2023-05-23T09:26:31;100723.41;;;18.76;100.00
24230;BME280;12362;50.004;8.006;2023-05-23T09:28:57;100727.38;;;19.14;100.00
24230;BME280;12362;50.004;8.006;2023-05-23T09:31:30;100724.13;;;19.32;100.00
24230;BME280;12362;50.004;8.006;2023-05-23T09:33:57;100717.91;;;19.87;100.00
24230;BME280;12362;50.004;8.006;2023-05-23T09:36:28;100719.66;;;20.69;100.00
24230;BME280;12362;50.004;8.006;2023-05-23T09:38:54;100721.56;;;21.08;100.00
24230;BME280;12362;50.004;8.006;2023-05-23T09:41:21;100719.72;;;20.99;100.00
24230;BME280;12362;50.004;8.006;2023-05-23T09:43:49;100716.19;;;21.58;100.00
24230;BME280;12362;50.004;8.006;2023-05-23T09:46:18;100700.16;;;22.73;100.00
24230;BME280;12362;50.004;8.006;2023-05-23T09:48:47;100710.22;;;21.75;100.00
24230;BME280;12362;50.004;8.006;2023-05-23T09:51:14;100722.94;;;21.03;100.00
24230;BME280;12362;50.004;8.006;2023-05-23T09:53:43;100717.50;;;21.34;100.00
24230;BME280;12362;50.004;8.006;2023-05-23T09:56:10;100716.53;;;21.44;100.00
24230;BME280;12362;50.004;8.006;2023-05-23T09:58:37;100718.06;;;20.98;100.00
24230;BME280;12362;50.004;8.006;2023-05-23T10:01:06;100725.91;;;20.89;100.00
24230;BME280;12362;50.004;8.006;2023-05-23T10:03:40;100717.69;;;20.82;100.00
24230;BME280;12362;50.004;8.006;2023-05-23T10:06:17;100731.91;;;20.29;100.00
24230;BME280;12362;50.004;8.006;2023-05-23T10:08:49;100739.59;;;19.79;100.00
24230;BME280;12362;50.004;8.006;2023-05-23T10:14:03;100753.94;;;19.55;100.00
24230;BME280;12362;50.004;8.006;2023-05-23T10:18:58;100751.53;;;19.52;100.00
24230;BME280;12362;50.004;8.006;2023-05-23T10:21:48;100750.28;;;19.78;100.00
24230;BME280;12362;50.004;8.006;2023-05-23T10:24:15;100746.78;;;20.51;100.00
24230;BME280;12362;50.004;8.006;2023-05-23T10:26:42;100754.56;;;20.01;100.00
24230;BME280;12362;50.004;8.006;2023-05-23T10:29:09;100758.88;;;19.91;100.00
24230;BME280;12362;50.004;8.006;2023-05-23T10:31:35;100766.34;;;19.75;100.00
24230;BME280;12362;50.004;8.006;2023-05-23T10:34:10;100768.69;;;19.35;100.00
24230;BME280;12362;50.004;8.006;2023-05-23T10:36:47;100791.47;;;18.80;100.00
24230;BME280;12362;50.004;8.006;2023-05-23T10:39:30;100775.25;;;19.41;100.00
24230;BME280;12362;50.004;8.006;2023-05-23T10:42:09;100786.97;;;19.70;100.00
24230;BME280;12362;50.004;8.006;2023-05-23T10:44:51;100789.38;;;19.62;100.00
24230;BME280;12362;50.004;8.006;2023-05-23T10:47:40;100805.19;;;19.51;100.00
24230;BME280;12362;50.004;8.006;2023-05-23T10:53:56;100814.50;;;18.66;100.00
24230;BME280;12362;50.004;8.006;2023-05-23T10:56:22;100810.59;;;18.71;100.00
24230;BME280;12362;50.004;8.006;2023-05-23T10:58:55;100818.34;;;18.73;100.00
24230;BME280;12362;50.004;8.006;2023-05-23T11:01:22;100820.16;;;18.72;100.00
24230;BME280;12362;50.004;8.006;2023-05-23T11:03:48;100821.28;;;18.57;100.00
24230;BME280;12362;50.004;8.006;2023-05-23T11:06:36;100810.84;;;18.90;100.00
24230;BME280;12362;50.004;8.006;2023-05-23T11:09:11;100803.50;;;19.17;100.00
24230;BME280;12362;50.004;8.006;2023-05-23T11:19:38;100791.94;;;19.84;100.00
24230;BME280;12362;50.004;8.006;2023-05-23T11:22:08;100787.75;;;19.92;100.00
24230;BME280;12362;50.004;8.006;2023-05-23T11:24:50;100788.56;;;20.46;100.00
24230;BME280;12362;50.004;8.006;2023-05-23T11:27:34;100791.03;;;19.74;100.00
24230;BME280;12362;50.004;8.006;2023-05-23T11:30:15;100801.84;;;19.38;100.00
24230;BME280;12362;50.004;8.006;2023-05-23T11:32:49;100795.94;;;19.02;100.00
24230;BME280;12362;50.004;8.006;2023-05-23T11:35:15;100806.09;;;18.50;100.00
24230;BME280;12362;50.004;8.006;2023-05-23T11:37:43;100823.78;;;18.25;100.00
24230;BME280;12362;50.004;8.006;2023-05-23T11:42:53;100797.19;;;19.41;100.00
24230;BME280;12362;50.004;8.006;2023-05-23T11:45:25;100778.81;;;21.67;100.00
24230;BME280;12362;50.004;8.006;2023-05-23T11:47:51;100775.41;;;21.95;100.00
24230;BME280;12362;50.004;8.006;2023-05-23T11:50:17;100775.41;;;22.23;100.00
24230;BME280;12362;50.004;8.006;2023-05-23T11:52:44;100769.75;;;22.47;100.00
24230;BME280;12362;50.004;8.006;2023-05-23T11:55:19;100777.84;;;21.68;100.00
24230;BME280;12362;50.004;8.006;2023-05-23T11:57:45;100776.63;;;21.12;100.00
24230;BME280;12362;50.004;8.006;2023-05-23T12:00:12;100782.09;;;20.18;100.00
24230;BME280;12362;50.004;8.006;2023-05-23T12:02:40;100792.63;;;20.18;100.00
24230;BME280;12362;50.004;8.006;2023-05-23T12:05:10;100797.59;;;20.32;100.00
24230;BME280;12362;50.004;8.006;2023-05-23T12:07:47;100796.72;;;20.12;100.00
24230;BME280;12362;50.004;8.006;2023-05-23T12:10:15;100796.75;;;19.90;100.00
24230;BME280;12362;50.004;8.006;2023-05-23T12:12:46;100792.66;;;19.86;100.00
24230;BME280;12362;50.004;8.006;2023-05-23T12:15:12;100794.13;;;20.01;100.00
24230;BME280;12362;50.004;8.006;2023-05-23T12:17:43;100784.34;;;20.43;100.00
24230;BME280;12362;50.004;8.006;2023-05-23T12:20:10;100783.34;;;20.35;100.00
24230;BME280;12362;50.004;8.006;2023-05-23T12:22:36;100783.78;;;20.60;100.00
24230;BME280;12362;50.004;8.006;2023-05-23T12:25:02;100783.13;;;20.79;100.00
24230;BME280;12362;50.004;8.006;2023-05-23T12:27:32;100788.94;;;20.62;100.00
24230;BME280;12362;50.004;8.006;2023-05-23T12:30:14;100784.13;;;20.67;100.00
24230;BME280;12362;50.004;8.006;2023-05-23T12:32:41;100789.84;;;20.72;100.00
24230;BME280;12362;50.004;8.006;2023-05-23T12:35:09;100778.53;;;21.01;100.00
24230;BME280;12362;50.004;8.006;2023-05-23T12:37:43;100786.22;;;20.73;100.00
24230;BME280;12362;50.004;8.006;2023-05-23T12:40:17;100786.91;;;20.86;100.00
24230;BME280;12362;50.004;8.006;2023-05-23T12:42:53;100772.88;;;20.85;100.00
24230;BME280;12362;50.004;8.006;2023-05-23T12:45:20;100786.81;;;20.56;100.00
24230;BME280;12362;50.004;8.006;2023-05-23T12:47:46;100799.16;;;20.35;100.00
24230;BME280;12362;50.004;8.006;2023-05-23T12:50:12;100805.44;;;19.48;100.00
24230;BME280;12362;50.004;8.006;2023-05-23T12:52:38;100804.31;;;19.07;100.00
24230;BME280;12362;50.004;8.006;2023-05-23T12:55:06;100814.94;;;18.94;100.00
24230;BME280;12362;50.004;8.006;2023-05-23T12:57:33;100821.84;;;18.73;100.00
24230;BME280;12362;50.004;8.006;2023-05-23T12:59:59;100821.28;;;18.92;100.00
24230;BME280;12362;50.004;8.006;2023-05-23T13:02:25;100813.81;;;19.31;100.00
24230;BME280;12362;50.004;8.006;2023-05-23T13:04:51;100821.13;;;19.27;100.00
24230;BME280;12362;50.004;8.006;2023-05-23T13:07:16;100817.63;;;19.49;100.00
24230;BME280;12362;50.004;8.006;2023-05-23T13:09:42;100814.75;;;19.52;100.00
24230;BME280;12362;50.004;8.006;2023-05-23T13:12:07;100806.63;;;19.66;100.00
24230;BME280;12362;50.004;8.006;2023-05-23T13:14:33;100810.66;;;19.81;100.00